createdAt,value
2023-03-02T00:01:21.340Z,19.27
2023-03-02T00:03:50.278Z,19.23
2023-03-02T00:06:17.085Z,19.26
2023-03-02T00:08:43.796Z,19.27
2023-03-02T00:11:12.675Z,19.28
2023-03-02T00:13:39.302Z,19.30
2023-03-02T00:16:06.568Z,19.06
2023-03-02T00:18:35.566Z,17.25
2023-03-02T00:21:10.655Z,17.98
2023-03-02T00:23:40.975Z,18.35
2023-03-02T00:26:07.645Z,18.45
2023-03-02T00:28:36.956Z,18.48
2023-03-02T00:31:06.901Z,18.49
2023-03-02T00:33:36.990Z,18.51
2023-03-02T00:36:06.284Z,18.53
2023-03-02T00:38:35.200Z,18.55
2023-03-02T00:41:04.449Z,18.57
2023-03-02T00:43:33.258Z,18.59
2023-03-02T00:46:07.950Z,18.61
2023-03-02T00:48:34.716Z,18.61
2023-03-02T00:51:01.689Z,18.68
2023-03-02T00:53:30.671Z,18.69
2023-03-02T00:55:59.744Z,18.71
2023-03-02T00:58:29.267Z,18.72
2023-03-02T01:00:58.158Z,18.74
2023-03-02T01:03:27.701Z,18.77
2023-03-02T01:05:55.357Z,18.78
2023-03-02T01:08:23.093Z,18.81
2023-03-02T01:10:54.234Z,18.83
2023-03-02T01:13:23.269Z,18.83
2023-03-02T01:15:49.939Z,18.83
2023-03-02T01:18:16.686Z,18.85
2023-03-02T01:20:43.507Z,18.87
2023-03-02T01:23:12.334Z,18.87
2023-03-02T01:25:39.747Z,18.89
2023-03-02T01:28:08.579Z,18.88
2023-03-02T01:30:35.135Z,18.91
2023-03-02T01:33:04.029Z,18.92
2023-03-02T01:35:30.805Z,18.94
2023-03-02T01:37:57.597Z,18.95
2023-03-02T01:40:24.396Z,18.96
2023-03-02T01:42:52.902Z,18.96
2023-03-02T01:45:47.553Z,18.98
2023-03-02T01:48:15.749Z,18.98
2023-03-02T01:50:45.354Z,18.98
2023-03-02T01:53:15.514Z,18.98
2023-03-02T01:55:44.267Z,19.01
2023-03-02T01:58:11.282Z,18.97
2023-03-02T02:00:38.477Z,19.01
2023-03-02T02:03:15.782Z,19.02
2023-03-02T02:05:46.633Z,19.02
2023-03-02T02:08:13.457Z,19.02
2023-03-02T02:10:40.108Z,19.02
2023-03-02T02:13:10.798Z,19.00
2023-03-02T02:15:39.037Z,19.04
2023-03-02T02:18:08.075Z,19.04
2023-03-02T02:20:42.578Z,19.04
2023-03-02T02:23:35.439Z,19.05
2023-03-02T02:26:10.601Z,19.06
2023-03-02T02:29:08.045Z,19.06
2023-03-02T02:31:40.939Z,19.07
2023-03-02T02:34:22.721Z,19.07
2023-03-02T02:36:54.193Z,19.08
2023-03-02T02:39:26.201Z,19.09
2023-03-02T02:41:54.356Z,19.08
2023-03-02T02:44:25.723Z,19.08
2023-03-02T02:46:54.734Z,19.06
2023-03-02T02:49:41.946Z,19.09
2023-03-02T02:52:11.530Z,19.10
2023-03-02T02:54:40.310Z,19.10
2023-03-02T02:57:09.131Z,19.10
2023-03-02T02:59:41.537Z,19.11
2023-03-02T03:02:15.465Z,19.10
2023-03-02T03:04:42.148Z,19.12
2023-03-02T03:07:10.357Z,19.11
2023-03-02T03:09:39.241Z,19.11
2023-03-02T03:12:16.152Z,19.11
2023-03-02T03:14:45.510Z,19.11
2023-03-02T03:17:14.468Z,19.12
2023-03-02T03:19:44.988Z,19.12
2023-03-02T03:22:14.338Z,19.10
2023-03-02T03:24:41.956Z,19.12
2023-03-02T03:27:09.419Z,19.12
2023-03-02T03:29:37.054Z,19.12
2023-03-02T03:32:06.918Z,19.14
2023-03-02T03:34:33.991Z,19.13
2023-03-02T03:37:02.791Z,19.13
2023-03-02T03:39:30.149Z,19.13
2023-03-02T03:41:59.065Z,19.14
2023-03-02T03:44:25.736Z,19.12
2023-03-02T03:46:52.619Z,19.15
2023-03-02T03:49:19.398Z,19.14
2023-03-02T03:51:48.481Z,19.15
2023-03-02T03:54:15.278Z,19.13
2023-03-02T03:56:46.374Z,19.14
2023-03-02T03:59:16.347Z,19.15
2023-03-02T04:01:54.180Z,19.15
2023-03-02T04:04:23.688Z,19.15
2023-03-02T04:06:53.638Z,19.16
2023-03-02T04:09:22.848Z,19.16
2023-03-02T04:11:51.107Z,19.13
2023-03-02T04:14:20.082Z,19.16
2023-03-02T04:16:49.941Z,19.15
2023-03-02T04:19:19.834Z,19.17
2023-03-02T04:21:48.746Z,19.16
2023-03-02T04:24:15.658Z,19.17
2023-03-02T04:26:42.630Z,19.17
2023-03-02T04:29:13.974Z,19.18
2023-03-02T04:31:40.851Z,19.19
2023-03-02T04:34:08.160Z,19.19
2023-03-02T04:36:37.108Z,19.19
2023-03-02T04:39:04.357Z,19.21
2023-03-02T04:41:33.290Z,19.19
2023-03-02T04:44:00.056Z,19.19
2023-03-02T04:46:29.255Z,19.20
2023-03-02T04:48:55.973Z,19.20
2023-03-02T04:51:31.306Z,19.20
2023-03-02T04:54:04.233Z,19.19
2023-03-02T04:56:33.506Z,19.20
2023-03-02T04:59:02.581Z,19.19
2023-03-02T05:01:29.352Z,19.19
2023-03-02T05:03:56.083Z,19.18
2023-03-02T05:06:24.596Z,19.19
2023-03-02T05:08:52.069Z,19.21
2023-03-02T05:11:23.880Z,19.20
2023-03-02T05:13:51.844Z,19.19
2023-03-02T05:16:19.032Z,19.20
2023-03-02T05:18:48.328Z,19.18
2023-03-02T05:21:15.770Z,19.19
2023-03-02T05:23:43.027Z,19.22
2023-03-02T05:26:09.842Z,19.20
2023-03-02T05:28:38.969Z,19.22
2023-03-02T05:31:07.864Z,19.22
2023-03-02T05:33:34.643Z,19.22
2023-03-02T05:36:01.971Z,19.21
2023-03-02T05:38:31.746Z,19.21
2023-03-02T05:40:58.535Z,19.18
2023-03-02T05:43:27.696Z,19.19
2023-03-02T05:46:00.452Z,19.19
2023-03-02T05:48:30.258Z,19.19
2023-03-02T05:50:57.015Z,19.20
2023-03-02T05:53:23.754Z,19.20
2023-03-02T05:55:52.770Z,19.19
2023-03-02T05:58:19.762Z,19.19
2023-03-02T06:00:49.309Z,19.19
2023-03-02T06:03:18.331Z,19.18
2023-03-02T06:05:51.123Z,19.19
2023-03-02T06:08:18.905Z,19.17
2023-03-02T06:10:45.929Z,19.18
2023-03-02T06:13:12.711Z,19.17
2023-03-02T06:15:40.665Z,19.18
2023-03-02T06:18:12.564Z,19.17
2023-03-02T06:20:42.029Z,19.18
2023-03-02T06:23:14.035Z,19.17
2023-03-02T06:25:43.748Z,19.17
2023-03-02T06:28:10.498Z,19.19
2023-03-02T06:30:37.200Z,19.22
2023-03-02T06:33:06.200Z,19.20
2023-03-02T06:35:35.664Z,18.08
2023-03-02T06:38:05.106Z,17.32
2023-03-02T06:40:34.752Z,17.70
2023-03-02T06:43:04.066Z,17.93
2023-03-02T06:45:33.690Z,17.98
2023-03-02T06:48:04.097Z,17.99
2023-03-02T06:50:30.932Z,18.01
2023-03-02T06:53:03.148Z,18.04
2023-03-02T06:55:31.991Z,18.10
2023-03-02T06:57:58.664Z,18.13
2023-03-02T07:00:28.613Z,18.16
2023-03-02T07:02:58.568Z,18.18
2023-03-02T07:05:25.269Z,18.25
2023-03-02T07:07:52.115Z,18.29
2023-03-02T07:10:19.011Z,18.34
2023-03-02T07:12:53.534Z,18.37
2023-03-02T07:15:22.611Z,18.41
2023-03-02T07:17:52.045Z,18.44
2023-03-02T07:20:20.806Z,18.47
2023-03-02T07:22:49.649Z,18.51
2023-03-02T07:25:16.439Z,18.54
2023-03-02T07:27:45.339Z,18.57
2023-03-02T07:30:21.092Z,18.60
2023-03-02T07:32:50.506Z,18.61
2023-03-02T07:35:17.471Z,18.63
2023-03-02T07:37:44.568Z,18.67
2023-03-02T07:40:12.118Z,18.68
2023-03-02T07:42:39.004Z,18.70
2023-03-02T07:45:06.304Z,18.73
2023-03-02T07:47:32.911Z,18.74
2023-03-02T07:50:01.946Z,18.75
2023-03-02T07:52:31.433Z,18.77
2023-03-02T07:55:06.317Z,18.79
2023-03-02T07:57:35.198Z,18.81
2023-03-02T08:00:07.069Z,18.82
2023-03-02T08:02:36.947Z,18.83
2023-03-02T08:05:06.452Z,18.85
2023-03-02T08:07:35.245Z,18.85
2023-03-02T08:10:04.088Z,18.86
2023-03-02T08:12:35.436Z,18.89
2023-03-02T08:15:03.717Z,18.85
2023-03-02T08:17:34.665Z,18.89
2023-03-02T08:20:01.336Z,18.92
2023-03-02T08:22:27.992Z,18.92
2023-03-02T08:24:54.717Z,18.94
2023-03-02T08:27:24.437Z,18.94
2023-03-02T08:29:51.154Z,18.95
2023-03-02T08:32:20.275Z,18.96
2023-03-02T08:34:51.220Z,18.97
2023-03-02T08:37:19.180Z,18.97
2023-03-02T08:39:49.021Z,18.99
2023-03-02T08:42:17.831Z,18.95
2023-03-02T08:44:44.592Z,18.97
2023-03-02T08:47:11.335Z,18.99
2023-03-02T08:49:38.074Z,19.01
2023-03-02T08:52:05.074Z,19.00
2023-03-02T08:54:53.322Z,19.01
2023-03-02T08:57:21.355Z,19.03
2023-03-02T08:59:48.209Z,19.03
2023-03-02T09:02:17.052Z,19.03
2023-03-02T09:04:46.160Z,19.04
2023-03-02T09:07:13.455Z,19.05
2023-03-02T09:09:43.963Z,19.05
2023-03-02T09:12:12.771Z,19.05
2023-03-02T09:14:39.452Z,19.06
2023-03-02T09:17:06.654Z,19.07
2023-03-02T09:19:43.256Z,19.07
2023-03-02T09:22:11.078Z,19.07
2023-03-02T09:24:37.722Z,19.07
2023-03-02T09:27:06.687Z,19.09
2023-03-02T09:29:38.584Z,19.09
2023-03-02T09:32:07.726Z,19.09
2023-03-02T09:34:36.710Z,19.10
2023-03-02T09:37:05.740Z,19.10
2023-03-02T09:39:34.762Z,19.10
2023-03-02T09:42:25.396Z,19.11
2023-03-02T09:45:15.454Z,19.12
2023-03-02T09:48:06.022Z,19.09
2023-03-02T09:50:42.534Z,19.12
2023-03-02T09:53:35.614Z,19.13
2023-03-02T09:56:02.590Z,19.13
2023-03-02T09:58:39.865Z,19.13
2023-03-02T10:01:15.506Z,19.14
2023-03-02T10:03:57.135Z,19.11
2023-03-02T10:06:24.008Z,19.12
2023-03-02T10:08:51.105Z,19.16
2023-03-02T10:11:31.552Z,19.18
2023-03-02T10:13:59.797Z,19.16
2023-03-02T10:16:51.448Z,19.17
2023-03-02T10:19:44.793Z,19.19
2023-03-02T10:22:41.009Z,19.22
2023-03-02T10:25:24.999Z,19.18
2023-03-02T10:27:56.384Z,19.20
2023-03-02T10:30:35.224Z,19.20
2023-03-02T10:33:16.452Z,19.19
2023-03-02T10:35:48.958Z,19.20
2023-03-02T10:38:22.974Z,19.22
2023-03-02T10:40:49.614Z,19.22
2023-03-02T10:43:43.407Z,19.22
2023-03-02T10:46:13.379Z,19.22
2023-03-02T10:48:59.743Z,19.23
2023-03-02T10:51:32.804Z,19.24
2023-03-02T10:54:13.187Z,19.27
2023-03-02T10:56:42.432Z,19.26
2023-03-02T10:59:45.061Z,19.26
2023-03-02T11:02:16.515Z,19.25
2023-03-02T11:04:45.978Z,19.27
2023-03-02T11:07:20.453Z,19.28
2023-03-02T11:10:07.452Z,19.29
2023-03-02T11:12:38.396Z,19.27
2023-03-02T11:15:23.450Z,19.30
2023-03-02T11:18:08.287Z,19.30
2023-03-02T11:20:37.934Z,19.30
2023-03-02T11:23:23.446Z,19.32
2023-03-02T11:25:54.706Z,19.32
2023-03-02T11:28:33.268Z,19.31
2023-03-02T11:31:02.618Z,19.30
2023-03-02T11:33:37.690Z,19.31
2023-03-02T11:36:17.821Z,19.32
2023-03-02T11:38:51.546Z,19.33
2023-03-02T11:41:36.015Z,19.32
2023-03-02T11:44:16.629Z,19.32
2023-03-02T11:46:45.749Z,19.31
2023-03-02T11:49:25.824Z,19.31
2023-03-02T11:51:58.830Z,19.28
2023-03-02T11:54:40.762Z,19.31
2023-03-02T11:57:29.639Z,19.31
2023-03-02T11:59:56.517Z,19.30
2023-03-02T12:02:23.223Z,19.30
2023-03-02T12:04:52.171Z,19.30
2023-03-02T12:07:23.134Z,19.29
2023-03-02T12:10:24.145Z,19.29
2023-03-02T12:13:17.764Z,19.29
2023-03-02T12:15:48.415Z,19.28
2023-03-02T12:18:21.200Z,19.27
2023-03-02T12:21:07.610Z,19.28
2023-03-02T12:23:43.749Z,19.28
2023-03-02T12:26:22.407Z,19.28
2023-03-02T12:29:10.249Z,19.27
2023-03-02T12:31:49.551Z,19.27
2023-03-02T12:34:26.390Z,19.25
2023-03-02T12:36:55.744Z,19.27
2023-03-02T12:39:45.145Z,19.27
2023-03-02T12:42:44.917Z,19.27
2023-03-02T12:45:24.418Z,19.27
2023-03-02T12:47:56.875Z,19.26
2023-03-02T12:50:25.564Z,19.26
2023-03-02T12:52:59.468Z,19.25
2023-03-02T12:55:26.267Z,19.25
2023-03-02T12:57:54.540Z,19.26
2023-03-02T13:00:26.993Z,19.26
2023-03-02T13:02:55.054Z,19.24
2023-03-02T13:05:25.969Z,19.26
2023-03-02T13:08:06.086Z,19.26
2023-03-02T13:10:37.942Z,19.26
2023-03-02T13:13:14.207Z,19.22
2023-03-02T13:16:17.748Z,19.26
2023-03-02T13:18:44.535Z,19.26
2023-03-02T13:21:12.463Z,19.25
2023-03-02T13:23:50.336Z,19.22
2023-03-02T13:26:28.670Z,19.25
2023-03-02T13:29:06.476Z,19.25
2023-03-02T13:31:36.810Z,19.23
2023-03-02T13:34:05.785Z,19.25
2023-03-02T13:36:37.601Z,19.24
2023-03-02T13:39:07.066Z,19.24
2023-03-02T13:41:35.672Z,19.24
2023-03-02T13:44:34.422Z,19.23
2023-03-02T13:47:04.236Z,19.24
2023-03-02T13:49:32.753Z,19.23
2023-03-02T13:52:18.971Z,19.23
2023-03-02T13:54:46.194Z,19.24
2023-03-02T13:57:16.302Z,19.23
2023-03-02T13:59:45.168Z,19.23
2023-03-02T14:02:23.030Z,19.23
2023-03-02T14:04:49.735Z,19.24
2023-03-02T14:07:17.696Z,19.23
2023-03-02T14:09:48.690Z,19.18
2023-03-02T14:12:29.414Z,19.21
2023-03-02T14:14:56.986Z,19.22
2023-03-02T14:17:24.298Z,19.22
2023-03-02T14:19:52.940Z,19.22
2023-03-02T14:22:20.295Z,19.21
2023-03-02T14:24:47.068Z,19.20
2023-03-02T14:27:15.650Z,19.22
2023-03-02T14:29:43.159Z,19.19
2023-03-02T14:32:13.076Z,19.19
2023-03-02T14:34:40.069Z,19.19
2023-03-02T14:37:18.221Z,19.18
2023-03-02T14:39:55.611Z,19.20
2023-03-02T14:42:23.144Z,19.18
2023-03-02T14:44:53.307Z,19.17
2023-03-02T14:47:21.816Z,19.18
2023-03-02T14:49:49.509Z,19.16
2023-03-02T14:52:23.593Z,19.13
2023-03-02T14:54:51.836Z,19.16
2023-03-02T14:57:25.374Z,19.17
2023-03-02T14:59:55.791Z,19.16
2023-03-02T15:02:26.899Z,19.14
2023-03-02T15:04:56.942Z,19.16
2023-03-02T15:07:24.425Z,19.15
2023-03-02T15:09:53.267Z,19.15
2023-03-02T15:12:22.188Z,19.12
2023-03-02T15:14:50.982Z,19.14
2023-03-02T15:17:19.806Z,19.16
2023-03-02T15:19:49.352Z,19.14
2023-03-02T15:22:16.094Z,19.14
2023-03-02T15:24:42.805Z,19.14
2023-03-02T15:27:09.413Z,19.13
2023-03-02T15:29:36.146Z,19.13
2023-03-02T15:32:02.931Z,19.14
2023-03-02T15:34:29.811Z,19.13
2023-03-02T15:36:56.530Z,19.12
2023-03-02T15:39:25.368Z,19.12
2023-03-02T15:41:53.837Z,19.15
2023-03-02T15:44:24.255Z,19.11
2023-03-02T15:46:54.417Z,19.12
2023-03-02T15:49:24.899Z,19.11
2023-03-02T15:51:54.685Z,19.10
2023-03-02T15:54:21.849Z,19.13
2023-03-02T15:56:53.310Z,19.08
2023-03-02T15:59:20.885Z,19.18
2023-03-02T16:01:47.774Z,19.23
2023-03-02T16:04:16.593Z,19.24
2023-03-02T16:06:44.851Z,19.27
2023-03-02T16:09:11.732Z,19.28
2023-03-02T16:11:38.497Z,19.27
2023-03-02T16:14:05.230Z,19.30
2023-03-02T16:16:34.271Z,19.28
2023-03-02T16:19:03.466Z,19.32
2023-03-02T16:21:32.531Z,19.33
2023-03-02T16:24:04.731Z,19.36
2023-03-02T16:26:36.109Z,19.37
2023-03-02T16:29:07.902Z,19.38
2023-03-02T16:31:37.794Z,19.40
2023-03-02T16:34:08.373Z,19.40
2023-03-02T16:36:38.285Z,19.42
2023-03-02T16:39:05.742Z,19.40
2023-03-02T16:41:34.819Z,19.44
2023-03-02T16:44:01.810Z,19.45
2023-03-02T16:46:32.712Z,19.46
2023-03-02T16:49:01.783Z,19.46
2023-03-02T16:51:28.569Z,19.46
2023-03-02T16:53:55.330Z,19.48
2023-03-02T16:56:24.203Z,19.50
2023-03-02T16:58:50.849Z,19.48
2023-03-02T17:01:19.839Z,19.48
2023-03-02T17:03:49.419Z,19.50
2023-03-02T17:06:19.730Z,19.50
2023-03-02T17:08:46.476Z,19.50
2023-03-02T17:11:13.273Z,19.50
2023-03-02T17:13:39.997Z,19.51
2023-03-02T17:16:06.922Z,19.50
2023-03-02T17:18:33.898Z,19.50
2023-03-02T17:21:03.404Z,19.48
2023-03-02T17:23:32.462Z,19.49
2023-03-02T17:26:01.553Z,19.50
2023-03-02T17:28:28.319Z,19.50
2023-03-02T17:30:57.140Z,19.48
2023-03-02T17:33:23.854Z,19.47
2023-03-02T17:35:50.642Z,19.47
2023-03-02T17:38:17.454Z,19.45
2023-03-02T17:40:46.470Z,19.47
2023-03-02T17:43:13.121Z,19.45
2023-03-02T17:45:39.900Z,19.45
2023-03-02T17:48:08.893Z,19.43
2023-03-02T17:50:35.623Z,19.44
2023-03-02T17:53:04.536Z,19.43
2023-03-02T17:55:31.367Z,19.43
2023-03-02T17:57:58.036Z,19.41
2023-03-02T18:00:24.944Z,19.41
2023-03-02T18:02:51.921Z,19.40
2023-03-02T18:05:21.912Z,19.41
2023-03-02T18:07:48.970Z,19.39
2023-03-02T18:10:15.857Z,19.39
2023-03-02T18:12:43.191Z,19.37
2023-03-02T18:15:12.483Z,19.38
2023-03-02T18:17:39.152Z,19.38
2023-03-02T18:20:08.506Z,19.36
2023-03-02T18:22:35.231Z,19.37
2023-03-02T18:25:01.937Z,19.35
2023-03-02T18:27:31.744Z,19.34
2023-03-02T18:29:58.572Z,19.34
2023-03-02T18:32:27.451Z,19.32
2023-03-02T18:34:54.274Z,19.33
2023-03-02T18:37:23.934Z,19.33
2023-03-02T18:39:52.724Z,19.33
2023-03-02T18:42:24.088Z,19.31
2023-03-02T18:44:50.760Z,19.37
2023-03-02T18:47:18.066Z,19.33
2023-03-02T18:49:50.065Z,19.32
2023-03-02T18:52:17.360Z,19.30
2023-03-02T18:54:47.672Z,19.32
2023-03-02T18:57:16.698Z,19.31
2023-03-02T18:59:46.238Z,19.31
2023-03-02T19:02:13.807Z,19.31
2023-03-02T19:04:40.673Z,19.30
2023-03-02T19:07:09.869Z,19.30
2023-03-02T19:09:39.445Z,19.29
2023-03-02T19:12:06.427Z,19.29
2023-03-02T19:14:35.281Z,19.29
2023-03-02T19:17:01.946Z,19.28
2023-03-02T19:19:28.848Z,19.27
2023-03-02T19:21:57.931Z,19.23
2023-03-02T19:24:26.954Z,19.24
2023-03-02T19:26:53.840Z,19.28
2023-03-02T19:29:22.209Z,19.28
2023-03-02T19:31:51.786Z,19.28
2023-03-02T19:34:20.983Z,19.26
2023-03-02T19:36:48.009Z,19.27
2023-03-02T19:39:14.765Z,19.27
2023-03-02T19:41:41.611Z,19.26
2023-03-02T19:44:08.487Z,19.27
2023-03-02T19:46:35.237Z,19.26
2023-03-02T19:49:04.290Z,19.26
2023-03-02T19:51:31.158Z,19.26
2023-03-02T19:54:04.035Z,19.25
2023-03-02T19:56:33.223Z,19.22
2023-03-02T19:59:01.111Z,19.25
2023-03-02T20:01:30.054Z,19.24
2023-03-02T20:04:01.955Z,19.25
2023-03-02T20:06:30.735Z,19.24
2023-03-02T20:09:01.377Z,19.24
2023-03-02T20:11:31.515Z,19.25
2023-03-02T20:14:02.260Z,19.24
2023-03-02T20:16:33.118Z,19.23
2023-03-02T20:19:02.015Z,19.23
2023-03-02T20:21:29.873Z,19.24
2023-03-02T20:23:56.793Z,19.24
2023-03-02T20:26:24.705Z,19.24
2023-03-02T20:28:51.922Z,19.24
2023-03-02T20:31:18.756Z,19.24
2023-03-02T20:33:50.606Z,19.24
2023-03-02T20:36:21.534Z,19.23
2023-03-02T20:38:53.058Z,19.24
2023-03-02T20:41:19.871Z,19.23
2023-03-02T20:43:49.313Z,19.23
2023-03-02T20:46:25.156Z,19.22
2023-03-02T20:48:52.108Z,19.23
2023-03-02T20:51:21.794Z,19.22
2023-03-02T20:53:48.711Z,19.22
2023-03-02T20:56:15.907Z,19.22
2023-03-02T20:58:44.273Z,19.22
2023-03-02T21:01:13.437Z,19.21
2023-03-02T21:03:42.305Z,19.20
2023-03-02T21:06:09.239Z,19.22
2023-03-02T21:08:39.126Z,19.21
2023-03-02T21:11:12.865Z,19.22
2023-03-02T21:13:40.622Z,19.20
2023-03-02T21:16:08.657Z,19.21
2023-03-02T21:18:37.802Z,19.19
2023-03-02T21:21:06.914Z,19.16
2023-03-02T21:23:36.377Z,19.21
2023-03-02T21:26:05.311Z,19.19
2023-03-02T21:28:31.964Z,19.19
2023-03-02T21:30:58.890Z,19.20
2023-03-02T21:33:30.266Z,19.19
2023-03-02T21:35:59.694Z,19.19
2023-03-02T21:38:28.924Z,19.20
2023-03-02T21:40:58.102Z,19.19
2023-03-02T21:43:27.943Z,19.19
2023-03-02T21:45:54.691Z,19.16
2023-03-02T21:48:23.013Z,19.20
2023-03-02T21:50:49.818Z,19.22
2023-03-02T21:53:17.139Z,19.20
2023-03-02T21:55:45.925Z,19.19
2023-03-02T21:58:12.707Z,19.20
2023-03-02T22:00:43.024Z,19.19
2023-03-02T22:03:14.394Z,19.18
2023-03-02T22:05:41.336Z,19.20
2023-03-02T22:08:10.690Z,19.18
2023-03-02T22:10:45.141Z,19.19
2023-03-02T22:13:24.917Z,19.17
2023-03-02T22:16:16.510Z,19.16
2023-03-02T22:18:43.581Z,19.18
2023-03-02T22:21:23.279Z,19.13
2023-03-02T22:23:52.660Z,19.16
2023-03-02T22:26:19.397Z,19.16
2023-03-02T22:28:48.278Z,19.17
2023-03-02T22:31:26.242Z,19.14
2023-03-02T22:33:55.076Z,19.15
2023-03-02T22:36:25.495Z,19.14
2023-03-02T22:38:52.221Z,19.15
2023-03-02T22:41:19.619Z,19.15
2023-03-02T22:43:46.626Z,19.12
2023-03-02T22:46:21.816Z,19.14
2023-03-02T22:48:50.007Z,19.14
2023-03-02T22:51:21.646Z,19.14
2023-03-02T22:53:52.378Z,19.13
2023-03-02T22:56:28.433Z,19.14
2023-03-02T22:58:55.254Z,19.14
2023-03-02T23:01:23.246Z,19.13
2023-03-02T23:04:25.845Z,19.13
2023-03-02T23:06:56.284Z,19.13
2023-03-02T23:09:27.945Z,19.14
2023-03-02T23:11:57.336Z,19.13
2023-03-02T23:14:25.299Z,19.13
2023-03-02T23:17:34.080Z,19.13
2023-03-02T23:20:02.943Z,19.13
2023-03-02T23:22:30.968Z,19.12
2023-03-02T23:24:57.715Z,19.13
2023-03-02T23:27:26.792Z,19.12
2023-03-02T23:29:56.591Z,19.13
2023-03-02T23:32:23.418Z,19.10
2023-03-02T23:34:52.384Z,19.12
2023-03-02T23:37:21.205Z,19.11
2023-03-02T23:39:50.020Z,19.12
2023-03-02T23:42:18.048Z,19.13
2023-03-02T23:44:45.303Z,19.12
2023-03-02T23:47:12.186Z,19.11
2023-03-02T23:49:41.540Z,19.25
2023-03-02T23:52:08.797Z,19.21
2023-03-02T23:54:38.832Z,18.37
2023-03-02T23:57:09.463Z,17.88
2023-03-02T23:59:36.141Z,17.59
